Fredericton Junction, Canada
Current Conditions -  °F | °C
As of 11:00 AM on Thursday 18 Dec 2014 (Local Time) from CYFC Reporting Station
Light Snow Light Snow  
Wind Chill: 23°   Ceiling: 1500
Heat Index: 32°   Visibility: 1.5mi
Dew Point: 30°   Wind: 12mph
Humidity: 93%   Direction: 300°WNW
Pressure: 29.46"   Gusts: 17mph
Location:  45.67°N, 66.62°W
Report Text: CYFC 181500Z AUTO 30010G15KT 1 1/2SM -SN FEW008 OVC015 M00/M01 A2946 RMK SLP976
Loading
Personal Weather Stations






























Interactive Weather Map New forecast layout! Learn more

10-Day Weather Forecast

Advertisements
Track Severe Weather on mobile